createdAt,value
2019-03-03T00:01:14.712Z,55.90
2019-03-03T00:04:10.194Z,55.20
2019-03-03T00:07:06.360Z,55.40
2019-03-03T00:10:00.819Z,54.10
2019-03-03T00:12:56.775Z,55.70
2019-03-03T00:15:51.902Z,56.10
2019-03-03T00:18:47.385Z,55.20
2019-03-03T00:21:43.108Z,55.00
2019-03-03T00:24:38.343Z,55.40
2019-03-03T00:27:33.499Z,54.90
2019-03-03T00:30:28.964Z,55.30
2019-03-03T00:33:23.890Z,56.00
2019-03-03T00:36:20.071Z,55.50
2019-03-03T00:39:24.759Z,55.00
2019-03-03T00:42:46.589Z,55.50
2019-03-03T00:46:14.346Z,54.90
2019-03-03T00:49:33.879Z,54.90
2019-03-03T00:52:35.139Z,55.50
2019-03-03T00:55:46.669Z,55.70
2019-03-03T00:58:51.656Z,54.50
2019-03-03T01:02:08.986Z,54.80
2019-03-03T01:05:26.135Z,55.00
2019-03-03T01:08:30.680Z,54.20
2019-03-03T01:11:32.307Z,54.10
2019-03-03T01:14:49.249Z,54.40
2019-03-03T01:18:00.351Z,54.00
2019-03-03T01:21:03.734Z,54.20
2019-03-03T01:24:12.335Z,55.70
2019-03-03T01:27:08.524Z,56.10
2019-03-03T01:30:04.532Z,56.50
2019-03-03T01:33:01.977Z,55.50
2019-03-03T01:35:58.065Z,57.20
2019-03-03T01:38:54.262Z,56.60
2019-03-03T01:41:51.324Z,58.80
2019-03-03T01:44:47.641Z,59.50
2019-03-03T01:47:43.483Z,59.50
2019-03-03T01:50:39.495Z,60.30
2019-03-03T01:53:35.783Z,58.60
2019-03-03T01:56:31.903Z,56.30
2019-03-03T01:59:28.261Z,58.60
2019-03-03T02:02:24.631Z,58.60
2019-03-03T02:05:21.016Z,58.90
2019-03-03T02:08:17.119Z,59.80
2019-03-03T02:11:13.380Z,58.40
2019-03-03T02:14:09.585Z,60.60
2019-03-03T02:17:07.053Z,57.70
2019-03-03T02:20:03.306Z,58.00
2019-03-03T02:22:59.844Z,61.00
2019-03-03T02:25:56.136Z,59.70
2019-03-03T02:28:56.907Z,58.10
2019-03-03T02:31:52.594Z,61.60
2019-03-03T02:34:48.573Z,61.40
2019-03-03T02:37:45.279Z,61.90
2019-03-03T02:40:41.228Z,60.50
2019-03-03T02:43:45.173Z,61.70
2019-03-03T02:46:41.277Z,60.80
2019-03-03T02:49:37.157Z,61.30
2019-03-03T02:52:33.476Z,61.70
2019-03-03T02:55:29.875Z,59.20
2019-03-03T02:58:26.651Z,58.60
2019-03-03T03:01:28.159Z,59.10
2019-03-03T03:04:24.897Z,57.60
2019-03-03T03:07:44.690Z,56.90
2019-03-03T03:10:56.073Z,56.80
2019-03-03T03:14:03.895Z,59.80
2019-03-03T03:20:04.542Z,61.70
2019-03-03T03:23:21.138Z,61.50
2019-03-03T03:26:35.126Z,59.00
2019-03-03T03:29:43.202Z,58.00
2019-03-03T03:32:46.590Z,57.80
2019-03-03T03:35:52.864Z,57.60
2019-03-03T03:39:16.030Z,59.40
2019-03-03T03:42:36.595Z,57.30
2019-03-03T03:45:50.645Z,57.20
2019-03-03T03:49:07.387Z,57.30
2019-03-03T03:52:22.562Z,58.20
2019-03-03T03:55:36.603Z,57.80
2019-03-03T03:58:35.584Z,57.80
2019-03-03T04:01:52.112Z,58.10
2019-03-03T04:05:18.019Z,58.10
2019-03-03T04:08:34.971Z,58.30
2019-03-03T04:11:48.068Z,58.40
2019-03-03T04:14:58.741Z,58.20
2019-03-03T04:18:02.086Z,58.10
2019-03-03T04:21:03.989Z,58.20
2019-03-03T04:24:15.736Z,58.10
2019-03-03T04:27:29.180Z,58.40
2019-03-03T04:30:44.879Z,57.80
2019-03-03T04:33:50.012Z,57.90
2019-03-03T04:37:00.928Z,58.80
2019-03-03T04:40:10.503Z,58.00
2019-03-03T04:43:38.970Z,58.80
2019-03-03T04:46:55.478Z,59.50
2019-03-03T04:50:04.676Z,60.60
2019-03-03T04:53:16.249Z,60.70
2019-03-03T04:59:15.687Z,61.60
2019-03-03T05:02:31.307Z,60.30
2019-03-03T05:05:56.296Z,61.30
2019-03-03T05:09:05.640Z,61.90
2019-03-03T05:12:40.508Z,62.80
2019-03-03T05:15:52.319Z,63.10
2019-03-03T05:19:21.278Z,63.30
2019-03-03T05:22:17.119Z,62.60
2019-03-03T05:25:13.703Z,62.80
2019-03-03T05:28:09.039Z,61.20
2019-03-03T05:31:04.222Z,62.60
2019-03-03T05:33:59.544Z,63.20
2019-03-03T05:36:54.798Z,63.30
2019-03-03T05:39:50.021Z,62.50
2019-03-03T05:42:44.728Z,63.80
2019-03-03T05:45:41.333Z,64.30
2019-03-03T05:48:36.788Z,64.30
2019-03-03T05:51:32.073Z,64.40
2019-03-03T05:54:26.879Z,64.60
2019-03-03T05:57:21.769Z,64.30
2019-03-03T06:00:17.319Z,64.80
2019-03-03T06:03:14.237Z,64.50
2019-03-03T06:06:09.340Z,63.90
2019-03-03T06:11:56.419Z,62.70
2019-03-03T06:14:51.658Z,63.90
2019-03-03T06:17:46.736Z,64.10
2019-03-03T06:20:42.188Z,63.20
2019-03-03T06:23:37.500Z,63.20
2019-03-03T06:26:32.768Z,64.20
2019-03-03T06:29:27.810Z,63.80
2019-03-03T06:32:22.612Z,63.20
2019-03-03T06:35:17.796Z,61.80
2019-03-03T06:38:12.791Z,63.80
2019-03-03T06:41:07.938Z,64.40
2019-03-03T06:44:03.211Z,63.80
2019-03-03T06:46:58.876Z,62.70
2019-03-03T06:49:53.922Z,63.60
2019-03-03T06:52:49.444Z,63.70
2019-03-03T06:55:45.120Z,64.00
2019-03-03T06:58:40.640Z,60.80
2019-03-03T07:01:35.105Z,62.80
2019-03-03T07:04:30.479Z,65.00
2019-03-03T07:07:25.562Z,63.00
2019-03-03T07:13:12.493Z,63.60
2019-03-03T07:16:08.383Z,63.10
2019-03-03T07:19:03.451Z,64.00
2019-03-03T07:21:58.107Z,62.80
2019-03-03T07:24:52.771Z,63.20
2019-03-03T07:27:47.736Z,63.30
2019-03-03T07:30:42.326Z,63.00
2019-03-03T07:33:38.939Z,62.30
2019-03-03T07:36:33.516Z,62.30
2019-03-03T07:39:28.330Z,62.60
2019-03-03T07:42:22.511Z,63.00
2019-03-03T07:45:16.853Z,62.10
2019-03-03T07:48:11.256Z,61.30
2019-03-03T07:51:05.951Z,61.90
2019-03-03T07:54:00.453Z,59.70
2019-03-03T07:56:54.939Z,61.30
2019-03-03T07:59:49.514Z,61.90
2019-03-03T08:02:44.362Z,62.40
2019-03-03T08:05:38.757Z,62.50
2019-03-03T08:08:33.445Z,60.40
2019-03-03T08:11:28.308Z,61.10
2019-03-03T08:14:22.783Z,59.20
2019-03-03T08:17:17.528Z,59.90
2019-03-03T08:20:12.490Z,61.60
2019-03-03T08:23:07.256Z,61.00
2019-03-03T08:26:01.976Z,60.60
2019-03-03T08:28:57.625Z,62.00
2019-03-03T08:31:52.267Z,62.20
2019-03-03T08:37:37.351Z,60.50
2019-03-03T08:40:32.230Z,61.10
2019-03-03T08:43:33.583Z,61.30
2019-03-03T08:46:52.688Z,61.50
2019-03-03T08:50:12.126Z,59.60
2019-03-03T08:53:23.203Z,60.90
2019-03-03T08:56:25.991Z,61.50
2019-03-03T08:59:32.772Z,61.30
2019-03-03T09:02:48.570Z,61.30
2019-03-03T09:05:53.190Z,60.70
2019-03-03T09:09:11.976Z,61.60
2019-03-03T09:12:29.894Z,60.10
2019-03-03T09:15:37.832Z,61.10
2019-03-03T09:19:00.078Z,60.30
2019-03-03T09:22:07.344Z,62.00
2019-03-03T09:25:27.219Z,60.10
2019-03-03T09:28:57.912Z,59.90
2019-03-03T09:35:14.802Z,62.00
2019-03-03T09:38:30.594Z,61.30
2019-03-03T09:41:42.999Z,59.50
2019-03-03T09:44:51.543Z,60.10
2019-03-03T09:48:14.374Z,60.80
2019-03-03T09:51:21.691Z,60.00
2019-03-03T09:54:34.527Z,60.80
2019-03-03T09:57:36.559Z,61.10
2019-03-03T10:00:49.239Z,59.00
2019-03-03T10:03:58.281Z,61.50
2019-03-03T10:07:13.768Z,59.20
2019-03-03T10:10:15.083Z,59.50
2019-03-03T10:13:33.596Z,60.70
2019-03-03T10:16:40.062Z,59.90
2019-03-03T10:19:46.227Z,61.70
2019-03-03T10:22:58.826Z,59.30
2019-03-03T10:26:15.439Z,59.70
2019-03-03T10:29:27.179Z,59.80
2019-03-03T10:32:48.656Z,60.80
2019-03-03T10:36:01.348Z,61.10
2019-03-03T10:39:20.020Z,60.50
2019-03-03T10:42:30.764Z,61.50
2019-03-03T10:45:43.267Z,61.40
2019-03-03T10:48:58.939Z,61.20
2019-03-03T10:51:59.260Z,61.90
2019-03-03T10:55:10.116Z,61.90
2019-03-03T10:58:22.898Z,62.00
2019-03-03T11:01:25.710Z,62.10
2019-03-03T11:04:39.254Z,60.40
2019-03-03T11:07:49.933Z,62.00
2019-03-03T11:11:09.482Z,62.00
2019-03-03T11:14:24.388Z,62.50
2019-03-03T11:17:33.229Z,62.40
2019-03-03T11:20:49.111Z,60.20
2019-03-03T11:24:04.805Z,61.20
2019-03-03T11:27:21.082Z,62.10
2019-03-03T11:30:39.462Z,62.10
2019-03-03T11:33:58.028Z,60.40
2019-03-03T11:37:14.509Z,58.70
2019-03-03T11:40:19.117Z,60.50
2019-03-03T11:43:20.061Z,59.40
2019-03-03T11:46:35.958Z,58.60
2019-03-03T11:49:56.999Z,59.30
2019-03-03T11:52:58.337Z,59.10
2019-03-03T11:56:13.723Z,60.00
2019-03-03T11:59:32.124Z,59.40
2019-03-03T12:02:37.694Z,61.00
2019-03-03T12:05:50.096Z,59.80
2019-03-03T12:08:54.535Z,59.00
2019-03-03T12:12:21.797Z,59.10
2019-03-03T12:15:35.110Z,58.70
2019-03-03T12:18:47.768Z,59.10
2019-03-03T12:22:12.220Z,59.30
2019-03-03T12:25:28.328Z,58.60
2019-03-03T12:28:45.116Z,58.10
2019-03-03T12:32:00.734Z,58.30
2019-03-03T12:35:14.534Z,58.20
2019-03-03T12:38:21.871Z,58.30
2019-03-03T12:41:52.477Z,59.00
2019-03-03T12:45:02.862Z,58.40
2019-03-03T12:48:14.360Z,59.20
2019-03-03T12:51:29.792Z,58.60
2019-03-03T12:54:40.029Z,58.10
2019-03-03T12:57:51.204Z,58.10
2019-03-03T13:00:58.658Z,58.20
2019-03-03T13:04:14.253Z,58.30
2019-03-03T13:07:23.355Z,58.20
2019-03-03T13:10:45.083Z,58.60
2019-03-03T13:13:47.837Z,58.70
2019-03-03T13:17:00.123Z,58.10
2019-03-03T13:20:07.007Z,58.10
2019-03-03T13:23:10.921Z,58.10
2019-03-03T13:26:30.805Z,58.20
2019-03-03T13:29:52.578Z,58.20
2019-03-03T13:32:57.635Z,58.10
2019-03-03T13:39:20.403Z,58.10
2019-03-03T13:42:33.241Z,58.20
2019-03-03T13:45:30.006Z,58.50
2019-03-03T13:48:24.953Z,58.40
2019-03-03T13:51:19.455Z,58.40
2019-03-03T13:54:14.128Z,58.10
2019-03-03T13:57:08.347Z,58.10
2019-03-03T14:00:02.683Z,58.10
2019-03-03T14:02:57.869Z,58.10
2019-03-03T14:05:52.371Z,58.30
2019-03-03T14:08:46.935Z,58.10
2019-03-03T14:11:41.805Z,58.00
2019-03-03T14:14:36.502Z,57.90
2019-03-03T14:17:31.365Z,58.10
2019-03-03T14:20:26.557Z,58.10
2019-03-03T14:23:21.226Z,58.10
2019-03-03T14:26:16.298Z,58.10
2019-03-03T14:29:11.022Z,58.20
2019-03-03T14:32:06.791Z,58.60
2019-03-03T14:35:01.126Z,58.80
2019-03-03T14:37:56.618Z,58.70
2019-03-03T14:40:51.276Z,58.20
2019-03-03T14:43:46.656Z,58.10
2019-03-03T14:46:41.112Z,58.10
2019-03-03T14:49:35.666Z,58.50
2019-03-03T14:52:30.294Z,58.50
2019-03-03T14:55:24.890Z,58.40
2019-03-03T14:58:19.434Z,58.60
2019-03-03T15:01:14.264Z,59.00
2019-03-03T15:04:08.847Z,58.60
2019-03-03T15:07:03.543Z,58.80
2019-03-03T15:09:58.051Z,59.00
2019-03-03T15:12:52.639Z,59.10
2019-03-03T15:15:48.187Z,60.60
2019-03-03T15:18:43.404Z,59.50
2019-03-03T15:21:38.088Z,59.10
2019-03-03T15:24:34.405Z,60.10
2019-03-03T15:27:29.427Z,59.30
2019-03-03T15:30:24.624Z,59.20
2019-03-03T15:33:19.369Z,59.10
2019-03-03T15:36:13.901Z,59.50
2019-03-03T15:39:10.498Z,61.20
2019-03-03T15:42:05.320Z,60.30
2019-03-03T15:45:01.047Z,59.60
2019-03-03T15:47:55.791Z,59.60
2019-03-03T15:50:50.834Z,58.90
2019-03-03T15:53:45.635Z,59.50
2019-03-03T15:56:40.604Z,60.80
2019-03-03T15:59:35.442Z,59.20
2019-03-03T16:02:29.784Z,59.90
2019-03-03T16:05:22.867Z,59.10
2019-03-03T16:08:17.621Z,60.00
2019-03-03T16:11:12.205Z,59.50
2019-03-03T16:14:06.647Z,60.00
2019-03-03T16:17:01.163Z,59.50
2019-03-03T16:22:42.019Z,59.20
2019-03-03T16:25:36.419Z,60.40
2019-03-03T16:28:30.999Z,61.30
2019-03-03T16:31:25.570Z,59.70
2019-03-03T16:34:20.572Z,60.20
2019-03-03T16:37:16.768Z,60.10
2019-03-03T16:40:12.776Z,59.30
2019-03-03T16:43:07.177Z,59.60
2019-03-03T16:46:01.828Z,60.80
2019-03-03T16:48:57.076Z,60.50
2019-03-03T16:51:52.637Z,61.30
2019-03-03T16:54:47.452Z,60.60
2019-03-03T16:57:41.986Z,60.80
2019-03-03T17:00:36.304Z,60.70
2019-03-03T17:03:30.702Z,60.20
2019-03-03T17:06:25.322Z,61.50
2019-03-03T17:09:20.969Z,61.00
2019-03-03T17:12:15.467Z,60.50
2019-03-03T17:15:11.218Z,60.20
2019-03-03T17:18:04.520Z,61.90
2019-03-03T17:20:58.982Z,61.50
2019-03-03T17:23:54.023Z,59.80
2019-03-03T17:26:48.457Z,62.30
2019-03-03T17:35:24.839Z,61.00
2019-03-03T17:38:19.630Z,60.50
2019-03-03T17:41:15.996Z,59.70
2019-03-03T17:44:10.357Z,60.10
2019-03-03T17:47:05.597Z,59.50
2019-03-03T17:50:00.425Z,59.10
2019-03-03T17:52:55.440Z,60.10
2019-03-03T17:55:49.917Z,59.70
2019-03-03T17:58:44.641Z,59.50
2019-03-03T18:01:39.575Z,60.10
2019-03-03T18:04:34.364Z,60.70
2019-03-03T18:07:28.286Z,61.30
2019-03-03T18:10:22.656Z,59.40
2019-03-03T18:13:21.400Z,60.00
2019-03-03T18:16:17.232Z,60.00
2019-03-03T18:19:13.128Z,62.00
2019-03-03T18:22:07.676Z,59.70
2019-03-03T18:25:02.799Z,59.50
2019-03-03T18:27:56.250Z,60.00
2019-03-03T18:30:50.932Z,59.20
2019-03-03T18:33:45.655Z,59.70
2019-03-03T18:36:38.499Z,59.40
2019-03-03T18:39:33.384Z,60.10
2019-03-03T18:42:28.444Z,61.50
2019-03-03T18:45:23.244Z,59.40
2019-03-03T18:48:18.039Z,60.20
2019-03-03T18:51:12.982Z,60.30
2019-03-03T18:54:10.385Z,60.40
2019-03-03T18:57:05.561Z,60.30
2019-03-03T18:59:59.971Z,60.20
2019-03-03T19:02:58.223Z,60.90
2019-03-03T19:05:55.619Z,59.70
2019-03-03T19:08:50.254Z,59.80
2019-03-03T19:11:45.024Z,60.10
2019-03-03T19:14:39.532Z,60.80
2019-03-03T19:17:34.115Z,60.80
2019-03-03T19:20:28.824Z,60.60
2019-03-03T19:23:23.377Z,61.00
2019-03-03T19:26:21.604Z,61.60
2019-03-03T19:29:16.006Z,60.70
2019-03-03T19:32:10.489Z,62.30
2019-03-03T19:35:04.885Z,60.60
2019-03-03T19:37:59.249Z,61.00
2019-03-03T19:40:54.544Z,61.80
2019-03-03T19:43:49.585Z,60.00
2019-03-03T19:46:45.097Z,60.10
2019-03-03T19:49:40.235Z,59.90
2019-03-03T19:52:35.755Z,61.00
2019-03-03T19:55:31.020Z,60.70
2019-03-03T19:58:26.034Z,60.90
2019-03-03T20:01:20.794Z,61.30
2019-03-03T20:04:15.698Z,61.60
2019-03-03T20:07:10.508Z,62.20
2019-03-03T20:10:05.983Z,61.00
2019-03-03T20:13:00.249Z,61.70
2019-03-03T20:15:55.142Z,61.40
2019-03-03T20:18:50.394Z,62.10
2019-03-03T20:21:45.433Z,62.10
2019-03-03T20:24:40.842Z,62.50
2019-03-03T20:27:35.917Z,61.10
2019-03-03T20:30:30.901Z,62.00
2019-03-03T20:33:26.364Z,62.30
2019-03-03T20:36:21.283Z,61.30
2019-03-03T20:39:16.625Z,61.20
2019-03-03T20:42:11.789Z,61.40
2019-03-03T20:45:06.720Z,61.80
2019-03-03T20:48:01.792Z,62.20
2019-03-03T20:50:56.941Z,61.90
2019-03-03T20:53:52.985Z,62.50
2019-03-03T20:56:47.758Z,62.40
2019-03-03T20:59:42.831Z,61.80
2019-03-03T21:02:37.773Z,61.70
2019-03-03T21:05:33.372Z,61.50
2019-03-03T21:08:28.528Z,61.70
2019-03-03T21:11:23.826Z,61.80
2019-03-03T21:14:18.995Z,62.00
2019-03-03T21:17:13.875Z,62.20
2019-03-03T21:20:09.611Z,61.20
2019-03-03T21:23:04.595Z,61.90
2019-03-03T21:26:00.060Z,61.00
2019-03-03T21:28:55.041Z,62.60
2019-03-03T21:31:50.240Z,62.30
2019-03-03T21:34:45.644Z,61.60
2019-03-03T21:37:41.282Z,61.70
2019-03-03T21:40:37.207Z,62.20
2019-03-03T21:43:32.752Z,62.20
2019-03-03T21:46:27.528Z,62.10
2019-03-03T21:49:23.128Z,62.00
2019-03-03T21:52:17.995Z,62.70
2019-03-03T21:55:13.877Z,61.30
2019-03-03T21:58:10.571Z,62.00
2019-03-03T22:01:07.722Z,60.30
2019-03-03T22:04:02.532Z,60.20
2019-03-03T22:06:58.161Z,61.30
2019-03-03T22:09:53.485Z,62.30
2019-03-03T22:12:49.277Z,62.00
2019-03-03T22:15:44.662Z,62.20
2019-03-03T22:18:39.943Z,60.70
2019-03-03T22:21:35.408Z,60.30
2019-03-03T22:24:30.633Z,60.80
2019-03-03T22:27:27.327Z,61.30
2019-03-03T22:30:22.846Z,61.10
2019-03-03T22:33:18.220Z,61.50
2019-03-03T22:36:13.485Z,60.50
2019-03-03T22:39:09.848Z,62.30
2019-03-03T22:42:04.888Z,62.10
2019-03-03T22:44:59.922Z,61.30
2019-03-03T22:47:55.567Z,62.20
2019-03-03T22:50:50.840Z,63.00
2019-03-03T22:53:45.745Z,62.90
2019-03-03T22:56:41.017Z,62.10
2019-03-03T22:59:36.135Z,62.00
2019-03-03T23:02:31.179Z,61.70
2019-03-03T23:05:48.979Z,63.00
2019-03-03T23:08:58.567Z,62.20
2019-03-03T23:12:10.340Z,63.70
2019-03-03T23:15:46.118Z,61.70
2019-03-03T23:19:22.751Z,62.80
2019-03-03T23:22:54.260Z,62.60
2019-03-03T23:25:56.638Z,63.20
2019-03-03T23:28:51.762Z,63.30
2019-03-03T23:31:47.003Z,63.60
2019-03-03T23:34:42.251Z,61.80
2019-03-03T23:37:37.348Z,63.70
2019-03-03T23:40:32.454Z,64.30
2019-03-03T23:43:27.168Z,64.10
2019-03-03T23:46:21.570Z,63.60
2019-03-03T23:49:16.071Z,63.40
2019-03-03T23:52:12.424Z,63.80
2019-03-03T23:55:06.978Z,63.70
2019-03-03T23:58:01.510Z,64.60
